createdAt,value
2019-01-11T00:00:49.561Z,83.03
2019-01-11T00:03:18.189Z,83.29
2019-01-11T00:05:46.960Z,83.26
2019-01-11T00:08:15.562Z,83.51
2019-01-11T00:10:44.035Z,83.67
2019-01-11T00:13:12.678Z,83.44
2019-01-11T00:15:41.213Z,83.40
2019-01-11T00:18:09.911Z,83.10
2019-01-11T00:20:38.428Z,83.31
2019-01-11T00:23:06.944Z,83.63
2019-01-11T00:25:35.444Z,83.79
2019-01-11T00:28:04.122Z,83.65
2019-01-11T00:30:32.733Z,83.22
2019-01-11T00:33:01.296Z,83.31
2019-01-11T00:35:29.802Z,83.60
2019-01-11T00:37:58.390Z,83.39
2019-01-11T00:40:26.847Z,83.36
2019-01-11T00:42:55.317Z,83.51
2019-01-11T00:45:23.787Z,83.63
2019-01-11T00:47:52.348Z,83.59
2019-01-11T00:50:22.593Z,83.88
2019-01-11T00:52:51.208Z,83.58
2019-01-11T00:55:19.843Z,83.64
2019-01-11T00:57:48.371Z,83.87
2019-01-11T01:00:20.221Z,83.67
2019-01-11T01:02:49.000Z,83.62
2019-01-11T01:05:18.118Z,83.58
2019-01-11T01:07:46.812Z,83.73
2019-01-11T01:10:15.523Z,83.88
2019-01-11T01:12:44.078Z,84.44
2019-01-11T01:15:13.474Z,84.74
2019-01-11T01:17:42.041Z,84.73
2019-01-11T01:20:16.114Z,84.68
2019-01-11T01:22:44.737Z,84.87
2019-01-11T01:25:13.711Z,85.45
2019-01-11T01:27:42.323Z,85.16
2019-01-11T01:30:13.888Z,85.64
2019-01-11T01:32:42.604Z,85.39
2019-01-11T01:35:12.582Z,85.20
2019-01-11T01:37:41.134Z,85.11
2019-01-11T01:40:14.739Z,85.41
2019-01-11T01:42:43.299Z,85.02
2019-01-11T01:45:14.927Z,84.63
2019-01-11T01:47:43.518Z,85.05
2019-01-11T01:50:13.098Z,84.78
2019-01-11T01:52:41.688Z,84.77
2019-01-11T01:55:12.416Z,84.19
2019-01-11T01:57:41.480Z,84.50
2019-01-11T02:00:13.382Z,84.86
2019-01-11T02:02:42.049Z,84.70
2019-01-11T02:05:10.729Z,84.49
2019-01-11T02:07:39.228Z,84.44
2019-01-11T02:10:10.595Z,83.97
2019-01-11T02:12:39.167Z,84.31
2019-01-11T02:15:09.647Z,84.75
2019-01-11T02:17:38.232Z,85.13
2019-01-11T02:20:12.469Z,85.00
2019-01-11T02:22:41.145Z,85.15
2019-01-11T02:25:09.724Z,84.66
2019-01-11T02:27:38.212Z,84.62
2019-01-11T02:30:12.532Z,85.05
2019-01-11T02:32:41.082Z,84.99
2019-01-11T02:35:09.697Z,85.00
2019-01-11T02:37:38.307Z,85.17
2019-01-11T02:40:09.403Z,85.02
2019-01-11T02:42:38.007Z,85.28
2019-01-11T02:45:09.667Z,85.22
2019-01-11T02:47:40.619Z,85.41
2019-01-11T02:50:11.058Z,85.72
2019-01-11T02:52:39.512Z,85.92
2019-01-11T02:55:09.414Z,85.77
2019-01-11T02:57:37.984Z,85.83
2019-01-11T03:00:15.027Z,86.10
2019-01-11T03:02:43.604Z,86.05
2019-01-11T03:05:14.502Z,85.75
2019-01-11T03:07:43.503Z,86.31
2019-01-11T03:10:17.553Z,86.29
2019-01-11T03:12:46.232Z,86.41
2019-01-11T03:15:16.460Z,86.42
2019-01-11T03:17:45.559Z,86.71
2019-01-11T03:20:16.287Z,86.90
2019-01-11T03:22:44.960Z,86.89
2019-01-11T03:25:15.255Z,86.81
2019-01-11T03:27:43.765Z,87.16
2019-01-11T03:30:14.990Z,86.93
2019-01-11T03:32:43.590Z,86.62
2019-01-11T03:35:13.766Z,86.53
2019-01-11T03:37:42.257Z,86.68
2019-01-11T03:40:13.423Z,87.02
2019-01-11T03:42:41.979Z,86.78
2019-01-11T03:45:13.296Z,86.43
2019-01-11T03:47:41.730Z,86.37
2019-01-11T03:50:12.945Z,86.27
2019-01-11T03:52:41.400Z,86.04
2019-01-11T03:55:13.158Z,86.00
2019-01-11T03:57:41.686Z,86.63
2019-01-11T04:00:15.981Z,87.17
2019-01-11T04:02:44.540Z,87.12
2019-01-11T04:05:13.123Z,87.52
2019-01-11T04:07:41.646Z,87.30
2019-01-11T04:10:13.536Z,87.08
2019-01-11T04:12:41.989Z,87.20
2019-01-11T04:15:13.353Z,86.95
2019-01-11T04:17:41.875Z,86.90
2019-01-11T04:20:13.473Z,86.87
2019-01-11T04:22:43.745Z,87.95
2019-01-11T04:25:14.010Z,87.80
2019-01-11T04:27:42.491Z,87.54
2019-01-11T04:30:13.835Z,87.72
2019-01-11T04:32:42.269Z,87.91
2019-01-11T04:35:10.909Z,87.32
2019-01-11T04:37:41.039Z,87.84
2019-01-11T04:40:11.931Z,87.37
2019-01-11T04:42:40.469Z,87.26
2019-01-11T04:45:10.068Z,87.46
2019-01-11T04:47:38.510Z,87.01
2019-01-11T04:50:09.998Z,87.21
2019-01-11T04:52:38.406Z,87.21
2019-01-11T04:55:07.422Z,87.78
2019-01-11T04:57:35.937Z,87.18
2019-01-11T05:00:07.448Z,87.44
2019-01-11T05:02:35.895Z,87.10
2019-01-11T05:05:05.739Z,87.23
2019-01-11T05:07:34.182Z,87.50
2019-01-11T05:10:03.338Z,87.83
2019-01-11T05:12:31.739Z,87.49
2019-01-11T05:15:00.309Z,88.20
2019-01-11T05:17:28.744Z,88.21
2019-01-11T05:19:57.206Z,88.47
2019-01-11T05:22:25.716Z,87.62
2019-01-11T05:24:54.252Z,87.88
2019-01-11T05:27:22.894Z,87.56
2019-01-11T05:29:51.365Z,88.18
2019-01-11T05:32:19.824Z,88.13
2019-01-11T05:34:48.344Z,87.38
2019-01-11T05:37:16.813Z,87.14
2019-01-11T05:39:45.371Z,88.33
2019-01-11T05:42:13.789Z,88.70
2019-01-11T05:44:42.355Z,88.69
2019-01-11T05:47:10.834Z,88.71
2019-01-11T05:49:39.427Z,89.03
2019-01-11T05:52:08.060Z,89.12
2019-01-11T05:54:36.485Z,89.51
2019-01-11T05:57:06.585Z,89.89
2019-01-11T05:59:35.120Z,90.03
2019-01-11T06:02:03.547Z,90.12
2019-01-11T06:04:36.545Z,89.97
2019-01-11T06:07:24.669Z,90.39
2019-01-11T06:09:53.353Z,90.62
2019-01-11T06:12:22.583Z,90.50
2019-01-11T06:14:51.631Z,90.57
2019-01-11T06:17:20.105Z,90.36
2019-01-11T06:19:48.617Z,90.69
2019-01-11T06:22:17.427Z,90.61
2019-01-11T06:24:47.441Z,90.43
2019-01-11T06:27:16.242Z,90.37
2019-01-11T06:29:44.801Z,90.44
2019-01-11T06:32:13.357Z,90.84
2019-01-11T06:34:41.827Z,90.75
2019-01-11T06:37:10.376Z,90.83
2019-01-11T06:39:43.214Z,91.05
2019-01-11T06:42:13.363Z,91.12
2019-01-11T06:44:41.882Z,91.02
2019-01-11T06:47:10.353Z,91.32
2019-01-11T06:49:38.867Z,91.13
2019-01-11T06:52:07.284Z,91.50
2019-01-11T06:54:35.801Z,92.04
2019-01-11T06:57:04.318Z,92.13
2019-01-11T06:59:33.109Z,92.16
2019-01-11T07:02:04.580Z,91.94
2019-01-11T07:04:33.181Z,92.36
2019-01-11T07:07:11.796Z,92.42
2019-01-11T07:09:40.483Z,92.22
2019-01-11T07:12:09.244Z,92.22
2019-01-11T07:14:37.825Z,92.36
2019-01-11T07:17:06.337Z,92.37
2019-01-11T07:19:34.853Z,92.45
2019-01-11T07:22:03.587Z,92.16
2019-01-11T07:24:32.110Z,91.94
2019-01-11T07:27:00.572Z,92.28
2019-01-11T07:29:29.023Z,92.01
2019-01-11T07:31:59.129Z,91.91
2019-01-11T07:34:27.654Z,91.76
2019-01-11T07:36:56.237Z,91.78
2019-01-11T07:39:26.358Z,91.50
2019-01-11T07:41:54.818Z,91.77
2019-01-11T07:44:23.388Z,91.86
2019-01-11T07:46:51.843Z,92.24
2019-01-11T07:49:23.290Z,92.12
2019-01-11T07:51:50.535Z,91.89
2019-01-11T07:54:19.088Z,92.33
2019-01-11T07:56:47.541Z,92.31
2019-01-11T07:59:16.171Z,92.22
2019-01-11T08:01:44.710Z,92.07
2019-01-11T08:04:13.214Z,92.40
2019-01-11T08:06:41.850Z,92.60
2019-01-11T08:09:10.609Z,92.44
2019-01-11T08:11:39.095Z,92.22
2019-01-11T08:14:09.645Z,92.26
2019-01-11T08:16:38.204Z,92.47
2019-01-11T08:19:08.475Z,92.33
2019-01-11T08:21:37.153Z,92.44
2019-01-11T08:24:05.723Z,92.41
2019-01-11T08:26:34.188Z,92.43
2019-01-11T08:29:02.758Z,92.52
2019-01-11T08:31:34.728Z,92.78
2019-01-11T08:34:01.538Z,92.89
2019-01-11T08:36:29.985Z,92.80
2019-01-11T08:38:58.562Z,92.97
2019-01-11T08:41:26.981Z,93.33
2019-01-11T08:43:55.487Z,93.29
2019-01-11T08:46:23.943Z,93.29
2019-01-11T08:48:52.512Z,93.15
2019-01-11T08:51:21.215Z,93.11
2019-01-11T08:53:51.314Z,93.47
2019-01-11T08:56:20.058Z,93.66
2019-01-11T08:58:48.574Z,93.65
2019-01-11T09:01:17.069Z,93.55
2019-01-11T09:03:46.384Z,93.62
2019-01-11T09:06:14.928Z,93.50
2019-01-11T09:08:43.448Z,93.48
2019-01-11T09:11:12.095Z,93.58
2019-01-11T09:13:40.711Z,93.91
2019-01-11T09:16:09.192Z,93.91
2019-01-11T09:18:39.422Z,93.76
2019-01-11T09:21:09.594Z,93.71
2019-01-11T09:23:38.444Z,93.67
2019-01-11T09:26:06.936Z,93.60
2019-01-11T09:28:35.507Z,93.66
2019-01-11T09:31:04.094Z,93.59
2019-01-11T09:33:32.625Z,93.29
2019-01-11T09:36:01.226Z,93.51
2019-01-11T09:38:29.688Z,93.46
2019-01-11T09:40:58.285Z,93.50
2019-01-11T09:43:26.987Z,93.51
2019-01-11T09:45:55.536Z,93.29
2019-01-11T09:48:23.982Z,93.16
2019-01-11T09:50:52.463Z,93.44
2019-01-11T09:53:20.981Z,93.44
2019-01-11T09:55:49.464Z,93.43
2019-01-11T09:58:17.990Z,93.43
2019-01-11T10:00:46.590Z,93.69
2019-01-11T10:03:15.108Z,93.66
2019-01-11T10:05:43.554Z,93.62
2019-01-11T10:08:12.035Z,93.25
2019-01-11T10:10:40.564Z,93.47
2019-01-11T10:13:09.152Z,93.69
2019-01-11T10:15:37.675Z,93.72
2019-01-11T10:18:06.306Z,93.38
2019-01-11T10:20:34.810Z,93.38
2019-01-11T10:23:03.552Z,93.84
2019-01-11T10:25:32.023Z,93.82
2019-01-11T10:28:00.464Z,93.68
2019-01-11T10:30:30.757Z,93.67
2019-01-11T10:32:59.208Z,93.65
2019-01-11T10:35:27.678Z,93.59
2019-01-11T10:37:56.185Z,93.49
2019-01-11T10:40:24.716Z,93.52
2019-01-11T10:42:53.250Z,93.48
2019-01-11T10:45:22.651Z,93.40
2019-01-11T10:47:52.183Z,93.42
2019-01-11T10:50:20.717Z,93.76
2019-01-11T10:52:49.228Z,94.19
2019-01-11T10:55:17.940Z,94.19
2019-01-11T10:57:46.936Z,94.19
2019-01-11T11:00:23.350Z,94.23
2019-01-11T11:02:52.752Z,94.36
2019-01-11T11:05:21.327Z,94.50
2019-01-11T11:07:49.809Z,94.07
2019-01-11T11:10:18.338Z,94.07
2019-01-11T11:12:48.261Z,94.87
2019-01-11T11:15:18.094Z,95.04
2019-01-11T11:17:47.165Z,95.13
2019-01-11T11:20:17.722Z,95.49
2019-01-11T11:22:46.431Z,95.49
2019-01-11T11:25:20.245Z,95.34
2019-01-11T11:27:48.873Z,95.20
2019-01-11T11:30:18.846Z,95.24
2019-01-11T11:32:57.333Z,95.21
2019-01-11T11:35:27.386Z,95.19
2019-01-11T11:37:59.080Z,95.12
2019-01-11T11:40:27.647Z,94.98
2019-01-11T11:42:56.173Z,94.98
2019-01-11T11:45:24.879Z,95.19
2019-01-11T11:47:56.243Z,95.42
2019-01-11T11:50:24.778Z,95.55
2019-01-11T11:52:53.366Z,95.44
2019-01-11T11:55:22.774Z,95.44
2019-01-11T11:57:51.487Z,95.52
2019-01-11T12:00:22.272Z,95.64
2019-01-11T12:02:50.855Z,95.44
2019-01-11T12:05:19.497Z,95.53
2019-01-11T12:07:47.950Z,95.43
2019-01-11T12:10:17.222Z,95.28
2019-01-11T12:12:45.824Z,95.28
2019-01-11T12:15:15.418Z,95.39
2019-01-11T12:17:43.894Z,95.40
2019-01-11T12:20:15.398Z,95.44
2019-01-11T12:22:43.976Z,95.38
2019-01-11T12:25:12.940Z,95.51
2019-01-11T12:27:41.452Z,95.43
2019-01-11T12:30:12.875Z,95.47
2019-01-11T12:32:41.493Z,95.53
2019-01-11T12:35:10.873Z,95.51
2019-01-11T12:37:39.320Z,95.41
2019-01-11T12:40:10.523Z,95.58
2019-01-11T12:42:39.149Z,95.64
2019-01-11T12:45:10.442Z,95.63
2019-01-11T12:47:39.123Z,95.69
2019-01-11T12:50:13.324Z,95.56
2019-01-11T12:52:41.932Z,95.65
2019-01-11T12:55:10.541Z,95.75
2019-01-11T12:57:39.107Z,95.96
2019-01-11T13:00:13.446Z,96.01
2019-01-11T13:02:42.101Z,95.96
2019-01-11T13:05:13.403Z,95.91
2019-01-11T13:07:41.947Z,96.04
2019-01-11T13:10:15.561Z,96.07
2019-01-11T13:12:44.230Z,96.34
2019-01-11T13:15:14.972Z,96.34
2019-01-11T13:17:43.729Z,96.41
2019-01-11T13:20:14.437Z,96.37
2019-01-11T13:22:43.058Z,96.53
2019-01-11T13:25:11.720Z,96.41
2019-01-11T13:27:40.296Z,96.38
2019-01-11T13:30:11.958Z,96.37
2019-01-11T13:32:40.622Z,96.11
2019-01-11T13:35:09.357Z,96.11
2019-01-11T13:37:37.845Z,95.92
2019-01-11T13:40:10.462Z,95.90
2019-01-11T13:42:39.044Z,95.61
2019-01-11T13:45:07.827Z,95.45
2019-01-11T13:47:36.518Z,95.43
2019-01-11T13:50:11.018Z,95.34
2019-01-11T13:52:39.670Z,95.35
2019-01-11T13:55:08.391Z,95.26
2019-01-11T13:57:36.871Z,94.83
2019-01-11T14:00:14.707Z,94.83
2019-01-11T14:02:43.459Z,94.83
2019-01-11T14:05:12.500Z,94.44
2019-01-11T14:07:41.132Z,94.44
2019-01-11T14:10:10.721Z,94.47
2019-01-11T14:12:39.167Z,94.47
2019-01-11T14:15:10.211Z,94.42
2019-01-11T14:17:38.740Z,94.16
2019-01-11T14:20:11.345Z,93.80
2019-01-11T14:22:41.325Z,94.47
2019-01-11T14:25:13.719Z,93.85
2019-01-11T14:27:42.279Z,93.72
2019-01-11T14:30:13.710Z,93.72
2019-01-11T14:32:42.445Z,93.79
2019-01-11T14:35:11.024Z,93.88
2019-01-11T14:37:39.454Z,93.77
2019-01-11T14:40:11.221Z,93.68
2019-01-11T14:42:39.738Z,93.79
2019-01-11T14:45:11.007Z,93.73
2019-01-11T14:47:39.407Z,93.57
2019-01-11T14:50:16.589Z,93.44
2019-01-11T14:52:45.387Z,93.27
2019-01-11T14:55:14.321Z,93.31
2019-01-11T14:57:43.144Z,93.50
2019-01-11T15:00:17.403Z,93.66
2019-01-11T15:02:45.811Z,94.04
2019-01-11T15:05:15.487Z,94.16
2019-01-11T15:07:44.761Z,93.83
2019-01-11T15:10:14.548Z,93.87
2019-01-11T15:12:44.622Z,93.96
2019-01-11T15:15:16.106Z,93.96
2019-01-11T15:17:44.580Z,94.21
2019-01-11T15:20:18.836Z,94.26
2019-01-11T15:22:48.171Z,94.32
2019-01-11T15:25:17.167Z,94.43
2019-01-11T15:27:45.691Z,94.51
2019-01-11T15:30:19.022Z,94.52
2019-01-11T15:32:47.889Z,94.40
2019-01-11T15:35:16.593Z,94.27
2019-01-11T15:37:45.198Z,94.01
2019-01-11T15:40:25.669Z,93.89
2019-01-11T15:42:54.385Z,93.92
2019-01-11T15:45:23.190Z,93.79
2019-01-11T15:47:51.850Z,93.85
2019-01-11T15:50:45.700Z,93.45
2019-01-11T15:53:14.655Z,93.45
2019-01-11T15:55:43.399Z,93.83
2019-01-11T15:58:12.022Z,93.96
2019-01-11T16:00:46.419Z,93.96
2019-01-11T16:03:16.526Z,93.90
2019-01-11T16:05:45.050Z,93.64
2019-01-11T16:08:13.629Z,93.66
2019-01-11T16:11:09.327Z,93.66
2019-01-11T16:13:40.851Z,93.48
2019-01-11T16:16:12.390Z,93.54
2019-01-11T16:18:42.476Z,93.60
2019-01-11T16:21:11.318Z,93.95
2019-01-11T16:23:39.977Z,94.05
2019-01-11T16:26:08.531Z,94.05
2019-01-11T16:28:37.092Z,94.24
2019-01-11T16:31:05.602Z,94.23
2019-01-11T16:33:34.135Z,93.93
2019-01-11T16:36:02.817Z,93.95
2019-01-11T16:38:31.344Z,93.95
2019-01-11T16:40:59.889Z,93.48
2019-01-11T16:43:28.311Z,93.48
2019-01-11T16:46:01.194Z,93.69
2019-01-11T16:48:29.774Z,93.78
2019-01-11T16:50:58.912Z,93.70
2019-01-11T16:53:27.402Z,93.39
2019-01-11T16:55:55.895Z,93.27
2019-01-11T16:58:24.315Z,93.11
2019-01-11T17:00:52.793Z,92.61
2019-01-11T17:03:27.532Z,92.49
2019-01-11T17:05:56.109Z,92.14
2019-01-11T17:08:24.565Z,92.14
2019-01-11T17:10:53.045Z,91.57
2019-01-11T17:13:24.728Z,91.30
2019-01-11T17:15:53.316Z,91.26
2019-01-11T17:18:21.839Z,91.24
2019-01-11T17:20:50.373Z,91.29
2019-01-11T17:23:20.435Z,91.51
2019-01-11T17:25:48.891Z,91.27
2019-01-11T17:28:17.342Z,91.27
2019-01-11T17:30:45.969Z,90.80
2019-01-11T17:33:14.615Z,89.50
2019-01-11T17:35:43.087Z,89.63
2019-01-11T17:38:11.718Z,89.63
2019-01-11T17:40:40.193Z,89.15
2019-01-11T17:43:08.725Z,88.97
2019-01-11T17:45:37.204Z,88.73
2019-01-11T17:48:05.763Z,88.37
2019-01-11T17:50:34.302Z,88.54
2019-01-11T17:53:02.778Z,88.55
2019-01-11T17:55:31.428Z,88.04
2019-01-11T17:57:59.877Z,88.04
2019-01-11T18:00:28.336Z,87.69
2019-01-11T18:02:56.776Z,87.79
2019-01-11T18:05:26.217Z,87.21
2019-01-11T18:07:54.964Z,87.37
2019-01-11T18:10:23.565Z,87.37
2019-01-11T18:12:52.152Z,87.33
2019-01-11T18:15:21.778Z,86.23
2019-01-11T18:17:50.481Z,85.91
2019-01-11T18:20:24.754Z,85.91
2019-01-11T18:22:53.316Z,86.40
2019-01-11T18:25:22.836Z,86.82
2019-01-11T18:27:51.337Z,87.01
2019-01-11T18:30:20.412Z,86.72
2019-01-11T18:32:48.848Z,86.72
2019-01-11T18:35:17.871Z,86.75
2019-01-11T18:37:46.316Z,86.70
2019-01-11T18:40:20.596Z,86.87
2019-01-11T18:42:49.279Z,86.98
2019-01-11T18:45:18.062Z,86.82
2019-01-11T18:47:46.596Z,86.83
2019-01-11T18:50:17.842Z,86.74
2019-01-11T18:52:46.451Z,86.63
2019-01-11T18:55:14.956Z,86.39
2019-01-11T18:57:44.464Z,85.76
2019-01-11T19:00:18.392Z,85.42
2019-01-11T19:02:46.969Z,85.42
2019-01-11T19:05:16.262Z,85.75
2019-01-11T19:07:46.114Z,85.62
2019-01-11T19:10:17.273Z,85.51
2019-01-11T19:12:45.790Z,85.41
2019-01-11T19:15:19.695Z,85.41
2019-01-11T19:17:48.216Z,85.23
2019-01-11T19:20:18.796Z,85.23
2019-01-11T19:22:47.369Z,85.13
2019-01-11T19:25:15.946Z,85.13
2019-01-11T19:27:44.601Z,85.36
2019-01-11T19:30:18.449Z,85.35
2019-01-11T19:32:47.068Z,85.26
2019-01-11T19:35:17.864Z,85.07
2019-01-11T19:37:46.397Z,84.79
2019-01-11T19:40:16.460Z,84.78
2019-01-11T19:42:45.235Z,84.96
2019-01-11T19:45:15.673Z,84.92
2019-01-11T19:47:45.702Z,85.20
2019-01-11T19:50:19.384Z,85.35
2019-01-11T19:52:48.138Z,85.29
2019-01-11T19:55:17.014Z,85.29
2019-01-11T19:57:45.898Z,84.76
2019-01-11T20:00:25.561Z,85.15
2019-01-11T20:02:54.399Z,85.15
2019-01-11T20:05:24.167Z,85.03
2019-01-11T20:07:52.893Z,85.17
2019-01-11T20:10:27.228Z,85.02
2019-01-11T20:12:55.832Z,85.24
2019-01-11T20:15:24.506Z,85.11
2019-01-11T20:17:53.110Z,85.17
2019-01-11T20:20:21.802Z,85.17
2019-01-11T20:22:50.333Z,85.09
2019-01-11T20:25:21.107Z,85.12
2019-01-11T20:27:49.741Z,85.30
2019-01-11T20:30:21.229Z,85.38
2019-01-11T20:32:49.894Z,85.32
2019-01-11T20:35:21.550Z,85.32
2019-01-11T20:37:50.333Z,85.24
2019-01-11T20:40:19.096Z,85.05
2019-01-11T20:42:47.888Z,85.05
2019-01-11T20:45:18.260Z,84.89
2019-01-11T20:47:47.284Z,84.52
2019-01-11T20:50:18.244Z,84.71
2019-01-11T20:52:47.612Z,85.02
2019-01-11T20:55:16.887Z,85.02
2019-01-11T20:57:46.004Z,84.83
2019-01-11T21:00:23.266Z,84.89
2019-01-11T21:02:52.195Z,84.55
2019-01-11T21:05:21.294Z,84.55
2019-01-11T21:07:49.949Z,84.71
2019-01-11T21:10:18.867Z,84.48
2019-01-11T21:12:47.479Z,84.50
2019-01-11T21:15:19.538Z,84.32
2019-01-11T21:17:48.217Z,84.37
2019-01-11T21:20:19.054Z,83.95
2019-01-11T21:22:47.802Z,83.49
2019-01-11T21:25:18.269Z,83.24
2019-01-11T21:27:46.905Z,83.24
2019-01-11T21:30:20.809Z,83.26
2019-01-11T21:32:49.621Z,83.35
2019-01-11T21:35:18.266Z,83.35
2019-01-11T21:37:47.935Z,83.39
2019-01-11T21:40:18.819Z,83.53
2019-01-11T21:42:47.937Z,83.71
2019-01-11T21:45:17.418Z,83.85
2019-01-11T21:47:46.051Z,83.43
2019-01-11T21:50:17.001Z,83.75
2019-01-11T21:52:45.628Z,83.55
2019-01-11T21:55:14.846Z,83.64
2019-01-11T21:57:44.464Z,83.96
2019-01-11T22:00:19.291Z,84.18
2019-01-11T22:02:47.742Z,84.41
2019-01-11T22:05:16.764Z,84.31
2019-01-11T22:07:45.216Z,83.94
2019-01-11T22:10:15.889Z,83.95
2019-01-11T22:12:45.416Z,83.99
2019-01-11T22:15:18.690Z,83.99
2019-01-11T22:17:47.232Z,84.20
2019-01-11T22:20:17.942Z,84.42
2019-01-11T22:22:46.514Z,84.05
2019-01-11T22:25:17.333Z,84.05
2019-01-11T22:27:45.802Z,84.04
2019-01-11T22:30:29.927Z,83.96
2019-01-11T22:32:52.831Z,83.96
2019-01-11T22:35:21.511Z,83.68
2019-01-11T22:37:50.030Z,83.65
2019-01-11T22:40:20.406Z,83.66
2019-01-11T22:42:50.367Z,83.52
2019-01-11T22:45:19.038Z,83.49
2019-01-11T22:47:47.739Z,83.49
2019-01-11T22:50:17.478Z,83.36
2019-01-11T22:52:45.907Z,83.36
2019-01-11T22:55:16.619Z,83.25
2019-01-11T22:57:45.215Z,82.92
2019-01-11T23:00:39.564Z,82.41
2019-01-11T23:03:14.159Z,81.78
2019-01-11T23:05:42.664Z,81.78
2019-01-11T23:08:14.076Z,81.92
2019-01-11T23:10:48.591Z,81.42
2019-01-11T23:13:17.327Z,81.30
2019-01-11T23:15:45.909Z,81.11
2019-01-11T23:18:14.412Z,81.11
2019-01-11T23:20:42.872Z,81.63
2019-01-11T23:23:11.303Z,81.71
2019-01-11T23:25:39.766Z,82.29
2019-01-11T23:28:08.356Z,82.29
2019-01-11T23:30:36.783Z,82.16
2019-01-11T23:33:05.469Z,82.64
2019-01-11T23:35:33.919Z,82.21
2019-01-11T23:38:02.412Z,82.26
2019-01-11T23:40:30.930Z,82.11
2019-01-11T23:42:59.442Z,81.60
2019-01-11T23:45:27.896Z,81.82
2019-01-11T23:47:56.326Z,81.75
2019-01-11T23:50:24.937Z,81.15
2019-01-11T23:52:53.206Z,81.46
2019-01-11T23:55:23.277Z,81.29
2019-01-11T23:57:51.756Z,81.86
